sensor_id;sensor_type;location;lat;lon;timestamp;pressure;altitude;pressure_sealevel;temperature;humidity
55277;BME280;41136;51.478;-2.610;2023-02-03T00:01:38;102087.78;;;6.33;100.00
55277;BME280;41136;51.478;-2.610;2023-02-03T00:04:03;102088.90;;;6.43;100.00
55277;BME280;41136;51.478;-2.610;2023-02-03T00:06:30;102094.01;;;6.74;100.00
55277;BME280;41136;51.478;-2.610;2023-02-03T00:08:54;102085.54;;;6.93;100.00
55277;BME280;41136;51.478;-2.610;2023-02-03T00:11:19;102094.00;;;6.03;100.00
55277;BME280;41136;51.478;-2.610;2023-02-03T00:13:45;102097.49;;;6.78;100.00
55277;BME280;41136;51.478;-2.610;2023-02-03T00:16:10;102098.71;;;6.74;100.00
55277;BME280;41136;51.478;-2.610;2023-02-03T00:18:35;102097.81;;;7.07;100.00
55277;BME280;41136;51.478;-2.610;2023-02-03T00:21:01;102110.74;;;7.25;100.00
55277;BME280;41136;51.478;-2.610;2023-02-03T00:23:26;102105.37;;;6.76;100.00
55277;BME280;41136;51.478;-2.610;2023-02-03T00:25:51;102104.52;;;7.18;100.00
55277;BME280;41136;51.478;-2.610;2023-02-03T00:28:17;102103.99;;;7.57;100.00
55277;BME280;41136;51.478;-2.610;2023-02-03T00:30:42;102117.92;;;6.74;100.00
55277;BME280;41136;51.478;-2.610;2023-02-03T00:33:08;102113.65;;;7.62;100.00
55277;BME280;41136;51.478;-2.610;2023-02-03T00:35:36;102106.64;;;8.40;100.00
55277;BME280;41136;51.478;-2.610;2023-02-03T00:37:58;102107.72;;;7.83;100.00
55277;BME280;41136;51.478;-2.610;2023-02-03T00:40:25;102109.36;;;8.33;100.00
55277;BME280;41136;51.478;-2.610;2023-02-03T00:42:49;102110.74;;;7.92;100.00
55277;BME280;41136;51.478;-2.610;2023-02-03T00:45:15;102112.77;;;8.17;100.00
55277;BME280;41136;51.478;-2.610;2023-02-03T00:47:40;102111.91;;;8.35;100.00
55277;BME280;41136;51.478;-2.610;2023-02-03T00:50:06;102125.07;;;8.36;100.00
55277;BME280;41136;51.478;-2.610;2023-02-03T00:52:31;102125.03;;;8.02;100.00
55277;BME280;41136;51.478;-2.610;2023-02-03T00:54:55;102121.58;;;7.74;100.00
55277;BME280;41136;51.478;-2.610;2023-02-03T00:57:21;102125.29;;;7.37;100.00
55277;BME280;41136;51.478;-2.610;2023-02-03T00:59:46;102130.96;;;8.22;100.00
55277;BME280;41136;51.478;-2.610;2023-02-03T01:02:11;102130.59;;;8.50;100.00
55277;BME280;41136;51.478;-2.610;2023-02-03T01:04:37;102117.71;;;7.80;100.00
55277;BME280;41136;51.478;-2.610;2023-02-03T01:07:02;102117.65;;;8.13;100.00
55277;BME280;41136;51.478;-2.610;2023-02-03T01:09:27;102108.89;;;8.24;100.00
55277;BME280;41136;51.478;-2.610;2023-02-03T01:11:52;102099.44;;;8.30;100.00
55277;BME280;41136;51.478;-2.610;2023-02-03T01:14:18;102103.79;;;8.66;100.00
55277;BME280;41136;51.478;-2.610;2023-02-03T01:16:43;102096.08;;;7.63;100.00
55277;BME280;41136;51.478;-2.610;2023-02-03T01:19:09;102099.06;;;7.93;100.00
55277;BME280;41136;51.478;-2.610;2023-02-03T01:23:39;102094.84;;;7.09;100.00
55277;BME280;41136;51.478;-2.610;2023-02-03T01:26:06;102085.85;;;7.09;100.00
55277;BME280;41136;51.478;-2.610;2023-02-03T01:28:30;102086.49;;;7.13;100.00
55277;BME280;41136;51.478;-2.610;2023-02-03T01:30:55;102081.77;;;6.94;100.00
55277;BME280;41136;51.478;-2.610;2023-02-03T01:33:20;102075.77;;;7.12;100.00
55277;BME280;41136;51.478;-2.610;2023-02-03T01:35:46;102078.57;;;7.48;100.00
55277;BME280;41136;51.478;-2.610;2023-02-03T01:38:11;102074.23;;;7.20;100.00
55277;BME280;41136;51.478;-2.610;2023-02-03T01:40:41;102067.55;;;7.42;100.00
55277;BME280;41136;51.478;-2.610;2023-02-03T01:43:02;102070.03;;;7.33;100.00
55277;BME280;41136;51.478;-2.610;2023-02-03T01:45:27;102062.22;;;7.68;100.00
55277;BME280;41136;51.478;-2.610;2023-02-03T01:47:54;102060.03;;;7.71;100.00
55277;BME280;41136;51.478;-2.610;2023-02-03T01:50:21;102066.54;;;7.74;100.00
55277;BME280;41136;51.478;-2.610;2023-02-03T01:52:46;102069.33;;;7.69;100.00
55277;BME280;41136;51.478;-2.610;2023-02-03T01:55:11;102064.15;;;7.39;100.00
55277;BME280;41136;51.478;-2.610;2023-02-03T01:57:37;102068.65;;;7.59;100.00
55277;BME280;41136;51.478;-2.610;2023-02-03T02:00:00;102070.14;;;8.41;100.00
55277;BME280;41136;51.478;-2.610;2023-02-03T02:02:25;102075.14;;;7.78;100.00
55277;BME280;41136;51.478;-2.610;2023-02-03T02:04:56;102084.49;;;7.83;100.00
55277;BME280;41136;51.478;-2.610;2023-02-03T02:07:15;102088.76;;;8.02;100.00
55277;BME280;41136;51.478;-2.610;2023-02-03T02:09:42;102084.75;;;7.95;100.00
55277;BME280;41136;51.478;-2.610;2023-02-03T02:12:08;102094.71;;;8.24;100.00
55277;BME280;41136;51.478;-2.610;2023-02-03T02:14:31;102098.26;;;7.95;100.00
55277;BME280;41136;51.478;-2.610;2023-02-03T02:17:01;102102.74;;;8.07;100.00
55277;BME280;41136;51.478;-2.610;2023-02-03T02:21:56;102098.52;;;7.88;100.00
55277;BME280;41136;51.478;-2.610;2023-02-03T02:24:25;102099.59;;;8.03;100.00
55277;BME280;41136;51.478;-2.610;2023-02-03T02:26:50;102104.01;;;7.76;100.00
55277;BME280;41136;51.478;-2.610;2023-02-03T02:33:57;102090.66;;;7.82;100.00
55277;BME280;41136;51.478;-2.610;2023-02-03T02:36:24;102094.30;;;7.85;100.00
55277;BME280;41136;51.478;-2.610;2023-02-03T02:38:49;102101.23;;;7.74;100.00
55277;BME280;41136;51.478;-2.610;2023-02-03T02:41:15;102098.44;;;7.96;100.00
55277;BME280;41136;51.478;-2.610;2023-02-03T02:43:40;102097.74;;;7.84;100.00
55277;BME280;41136;51.478;-2.610;2023-02-03T02:46:04;102097.33;;;8.12;100.00
55277;BME280;41136;51.478;-2.610;2023-02-03T02:48:31;102096.03;;;8.77;100.00
55277;BME280;41136;51.478;-2.610;2023-02-03T02:50:55;102087.65;;;8.20;100.00
55277;BME280;41136;51.478;-2.610;2023-02-03T02:53:21;102093.21;;;8.40;100.00
55277;BME280;41136;51.478;-2.610;2023-02-03T02:55:43;102096.77;;;8.56;100.00
55277;BME280;41136;51.478;-2.610;2023-02-03T02:58:10;102098.91;;;7.88;100.00
55277;BME280;41136;51.478;-2.610;2023-02-03T03:00:35;102097.83;;;8.25;100.00
55277;BME280;41136;51.478;-2.610;2023-02-03T03:03:11;102104.01;;;7.67;100.00
55277;BME280;41136;51.478;-2.610;2023-02-03T03:05:25;102106.45;;;8.22;100.00
55277;BME280;41136;51.478;-2.610;2023-02-03T03:07:54;102102.43;;;7.61;100.00
55277;BME280;41136;51.478;-2.610;2023-02-03T03:10:19;102100.63;;;8.64;100.00
55277;BME280;41136;51.478;-2.610;2023-02-03T03:12:45;102101.70;;;8.65;100.00
55277;BME280;41136;51.478;-2.610;2023-02-03T03:15:08;102106.63;;;8.32;100.00
55277;BME280;41136;51.478;-2.610;2023-02-03T03:17:40;102109.13;;;8.56;100.00
55277;BME280;41136;51.478;-2.610;2023-02-03T03:19:59;102102.95;;;9.27;100.00
55277;BME280;41136;51.478;-2.610;2023-02-03T03:22:25;102103.76;;;8.69;100.00
55277;BME280;41136;51.478;-2.610;2023-02-03T03:24:51;102109.16;;;8.35;100.00
55277;BME280;41136;51.478;-2.610;2023-02-03T03:27:17;102108.74;;;8.72;100.00
55277;BME280;41136;51.478;-2.610;2023-02-03T03:29:41;102108.77;;;8.27;100.00
55277;BME280;41136;51.478;-2.610;2023-02-03T03:32:03;102111.35;;;8.16;100.00
55277;BME280;41136;51.478;-2.610;2023-02-03T03:34:29;102112.13;;;7.83;100.00
55277;BME280;41136;51.478;-2.610;2023-02-03T03:37:00;102113.14;;;7.99;100.00
55277;BME280;41136;51.478;-2.610;2023-02-03T03:39:25;102118.70;;;7.50;100.00
55277;BME280;41136;51.478;-2.610;2023-02-03T03:41:52;102115.67;;;8.76;100.00
55277;BME280;41136;51.478;-2.610;2023-02-03T03:44:13;102116.80;;;8.72;100.00
55277;BME280;41136;51.478;-2.610;2023-02-03T03:46:40;102111.30;;;8.26;100.00
55277;BME280;41136;51.478;-2.610;2023-02-03T03:49:02;102113.31;;;7.78;100.00
55277;BME280;41136;51.478;-2.610;2023-02-03T03:51:30;102115.89;;;8.53;100.00
55277;BME280;41136;51.478;-2.610;2023-02-03T03:53:52;102120.81;;;7.83;100.00
55277;BME280;41136;51.478;-2.610;2023-02-03T03:56:23;102125.05;;;7.59;100.00
55277;BME280;41136;51.478;-2.610;2023-02-03T03:58:44;102121.49;;;7.61;100.00
55277;BME280;41136;51.478;-2.610;2023-02-03T04:01:07;102128.86;;;7.66;100.00
55277;BME280;41136;51.478;-2.610;2023-02-03T04:03:37;102135.07;;;8.57;100.00
55277;BME280;41136;51.478;-2.610;2023-02-03T04:05:58;102132.50;;;7.67;100.00
55277;BME280;41136;51.478;-2.610;2023-02-03T04:08:23;102135.20;;;8.04;100.00
55277;BME280;41136;51.478;-2.610;2023-02-03T04:10:48;102126.58;;;8.45;100.00
55277;BME280;41136;51.478;-2.610;2023-02-03T04:13:14;102125.66;;;8.53;100.00
55277;BME280;41136;51.478;-2.610;2023-02-03T04:15:39;102129.54;;;8.32;100.00
55277;BME280;41136;51.478;-2.610;2023-02-03T04:18:05;102130.44;;;8.33;100.00
55277;BME280;41136;51.478;-2.610;2023-02-03T04:20:31;102132.84;;;8.38;100.00
55277;BME280;41136;51.478;-2.610;2023-02-03T04:22:55;102138.35;;;8.75;100.00
55277;BME280;41136;51.478;-2.610;2023-02-03T04:25:20;102137.77;;;8.06;100.00
55277;BME280;41136;51.478;-2.610;2023-02-03T04:27:46;102142.57;;;8.65;100.00
55277;BME280;41136;51.478;-2.610;2023-02-03T04:30:12;102145.69;;;8.08;100.00
55277;BME280;41136;51.478;-2.610;2023-02-03T04:32:36;102154.35;;;8.44;100.00
55277;BME280;41136;51.478;-2.610;2023-02-03T04:35:02;102156.61;;;8.04;100.00
55277;BME280;41136;51.478;-2.610;2023-02-03T04:37:27;102155.91;;;8.48;100.00
55277;BME280;41136;51.478;-2.610;2023-02-03T04:39:53;102155.17;;;7.85;100.00
55277;BME280;41136;51.478;-2.610;2023-02-03T04:42:18;102153.10;;;8.07;100.00
55277;BME280;41136;51.478;-2.610;2023-02-03T04:44:43;102146.16;;;8.05;100.00
55277;BME280;41136;51.478;-2.610;2023-02-03T04:47:08;102142.53;;;7.77;100.00
55277;BME280;41136;51.478;-2.610;2023-02-03T04:49:34;102148.44;;;8.09;100.00
55277;BME280;41136;51.478;-2.610;2023-02-03T04:51:59;102141.55;;;7.90;100.00
55277;BME280;41136;51.478;-2.610;2023-02-03T04:54:25;102135.60;;;7.51;100.00
55277;BME280;41136;51.478;-2.610;2023-02-03T04:56:50;102140.80;;;7.41;100.00
55277;BME280;41136;51.478;-2.610;2023-02-03T04:59:15;102140.58;;;7.08;100.00
55277;BME280;41136;51.478;-2.610;2023-02-03T05:01:41;102141.34;;;7.09;100.00
55277;BME280;41136;51.478;-2.610;2023-02-03T05:04:06;102141.83;;;7.56;100.00
55277;BME280;41136;51.478;-2.610;2023-02-03T05:06:32;102146.93;;;7.53;100.00
55277;BME280;41136;51.478;-2.610;2023-02-03T05:08:57;102147.63;;;7.06;100.00
55277;BME280;41136;51.478;-2.610;2023-02-03T05:11:22;102145.52;;;6.92;100.00
55277;BME280;41136;51.478;-2.610;2023-02-03T05:13:47;102144.81;;;6.95;100.00
55277;BME280;41136;51.478;-2.610;2023-02-03T05:16:13;102143.66;;;6.98;100.00
55277;BME280;41136;51.478;-2.610;2023-02-03T05:18:38;102144.33;;;6.73;100.00
55277;BME280;41136;51.478;-2.610;2023-02-03T05:21:04;102142.30;;;7.28;100.00
55277;BME280;41136;51.478;-2.610;2023-02-03T05:23:29;102137.31;;;7.17;100.00
55277;BME280;41136;51.478;-2.610;2023-02-03T05:25:54;102134.08;;;7.18;100.00
55277;BME280;41136;51.478;-2.610;2023-02-03T05:28:20;102138.85;;;7.00;100.00
55277;BME280;41136;51.478;-2.610;2023-02-03T05:30:45;102143.75;;;6.86;100.00
55277;BME280;41136;51.478;-2.610;2023-02-03T05:33:10;102142.37;;;6.41;100.00
55277;BME280;41136;51.478;-2.610;2023-02-03T05:35:37;102146.33;;;6.29;100.00
55277;BME280;41136;51.478;-2.610;2023-02-03T05:38:01;102153.26;;;6.53;100.00
55277;BME280;41136;51.478;-2.610;2023-02-03T05:40:27;102152.17;;;7.06;100.00
55277;BME280;41136;51.478;-2.610;2023-02-03T05:42:52;102152.24;;;7.20;100.00
55277;BME280;41136;51.478;-2.610;2023-02-03T05:49:23;102158.58;;;7.16;100.00
55277;BME280;41136;51.478;-2.610;2023-02-03T05:51:48;102155.01;;;6.73;100.00
55277;BME280;41136;51.478;-2.610;2023-02-03T05:54:13;102154.19;;;6.83;100.00
55277;BME280;41136;51.478;-2.610;2023-02-03T05:56:38;102150.94;;;6.87;100.00
55277;BME280;41136;51.478;-2.610;2023-02-03T05:59:04;102154.37;;;7.33;100.00
55277;BME280;41136;51.478;-2.610;2023-02-03T06:01:29;102157.65;;;7.08;100.00
55277;BME280;41136;51.478;-2.610;2023-02-03T06:03:55;102162.16;;;6.89;100.00
55277;BME280;41136;51.478;-2.610;2023-02-03T06:06:20;102171.48;;;6.43;100.00
55277;BME280;41136;51.478;-2.610;2023-02-03T06:08:45;102172.89;;;7.37;100.00
55277;BME280;41136;51.478;-2.610;2023-02-03T06:11:11;102174.91;;;6.63;100.00
55277;BME280;41136;51.478;-2.610;2023-02-03T06:13:36;102170.54;;;7.21;100.00
55277;BME280;41136;51.478;-2.610;2023-02-03T06:16:02;102175.49;;;7.01;100.00
55277;BME280;41136;51.478;-2.610;2023-02-03T06:18:27;102180.73;;;6.62;100.00
55277;BME280;41136;51.478;-2.610;2023-02-03T06:20:52;102180.65;;;7.23;100.00
55277;BME280;41136;51.478;-2.610;2023-02-03T06:23:18;102177.56;;;7.33;100.00
55277;BME280;41136;51.478;-2.610;2023-02-03T06:25:43;102186.81;;;7.40;100.00
55277;BME280;41136;51.478;-2.610;2023-02-03T06:28:08;102192.19;;;7.66;100.00
55277;BME280;41136;51.478;-2.610;2023-02-03T06:30:33;102197.66;;;6.92;100.00
55277;BME280;41136;51.478;-2.610;2023-02-03T06:32:59;102200.95;;;7.39;100.00
55277;BME280;41136;51.478;-2.610;2023-02-03T06:35:24;102208.25;;;7.20;100.00
55277;BME280;41136;51.478;-2.610;2023-02-03T06:37:49;102203.53;;;7.17;100.00
55277;BME280;41136;51.478;-2.610;2023-02-03T06:40:15;102201.87;;;7.15;100.00
55277;BME280;41136;51.478;-2.610;2023-02-03T06:42:44;102198.78;;;7.27;100.00
55277;BME280;41136;51.478;-2.610;2023-02-03T06:45:06;102203.82;;;7.42;100.00
55277;BME280;41136;51.478;-2.610;2023-02-03T06:47:31;102206.45;;;7.37;100.00
55277;BME280;41136;51.478;-2.610;2023-02-03T06:49:56;102205.31;;;8.04;100.00
55277;BME280;41136;51.478;-2.610;2023-02-03T06:52:22;102206.89;;;7.69;100.00
55277;BME280;41136;51.478;-2.610;2023-02-03T06:54:47;102213.64;;;7.85;100.00
55277;BME280;41136;51.478;-2.610;2023-02-03T06:57:12;102215.08;;;8.41;100.00
55277;BME280;41136;51.478;-2.610;2023-02-03T06:59:37;102216.97;;;7.63;100.00
55277;BME280;41136;51.478;-2.610;2023-02-03T07:02:03;102217.45;;;8.16;100.00
55277;BME280;41136;51.478;-2.610;2023-02-03T07:04:28;102223.39;;;8.99;100.00
55277;BME280;41136;51.478;-2.610;2023-02-03T07:06:53;102226.37;;;9.31;100.00
55277;BME280;41136;51.478;-2.610;2023-02-03T07:09:23;102223.69;;;9.46;100.00
55277;BME280;41136;51.478;-2.610;2023-02-03T07:11:43;102224.98;;;10.01;100.00
55277;BME280;41136;51.478;-2.610;2023-02-03T07:14:09;102231.02;;;9.52;100.00
55277;BME280;41136;51.478;-2.610;2023-02-03T07:16:34;102232.58;;;7.95;100.00
55277;BME280;41136;51.478;-2.610;2023-02-03T07:18:59;102236.22;;;8.88;100.00
55277;BME280;41136;51.478;-2.610;2023-02-03T07:21:25;102238.46;;;9.47;100.00
55277;BME280;41136;51.478;-2.610;2023-02-03T07:23:49;102236.26;;;9.92;100.00
55277;BME280;41136;51.478;-2.610;2023-02-03T07:26:15;102237.43;;;9.51;100.00
55277;BME280;41136;51.478;-2.610;2023-02-03T07:28:40;102233.50;;;9.63;100.00
55277;BME280;41136;51.478;-2.610;2023-02-03T07:31:06;102234.11;;;9.95;100.00
55277;BME280;41136;51.478;-2.610;2023-02-03T07:33:31;102243.86;;;9.73;100.00
55277;BME280;41136;51.478;-2.610;2023-02-03T07:35:58;102247.14;;;9.80;100.00
55277;BME280;41136;51.478;-2.610;2023-02-03T07:38:27;102251.32;;;10.31;100.00
55277;BME280;41136;51.478;-2.610;2023-02-03T07:40:46;102249.23;;;10.39;100.00
55277;BME280;41136;51.478;-2.610;2023-02-03T07:43:11;102249.69;;;10.29;100.00
55277;BME280;41136;51.478;-2.610;2023-02-03T07:45:36;102252.86;;;10.35;100.00
55277;BME280;41136;51.478;-2.610;2023-02-03T07:48:02;102262.63;;;10.08;100.00
55277;BME280;41136;51.478;-2.610;2023-02-03T07:50:27;102266.25;;;10.35;100.00
55277;BME280;41136;51.478;-2.610;2023-02-03T07:52:53;102274.33;;;10.82;100.00
55277;BME280;41136;51.478;-2.610;2023-02-03T07:55:18;102277.49;;;11.24;100.00
55277;BME280;41136;51.478;-2.610;2023-02-03T07:57:43;102278.94;;;10.75;100.00
55277;BME280;41136;51.478;-2.610;2023-02-03T08:00:11;102274.24;;;10.10;100.00
55277;BME280;41136;51.478;-2.610;2023-02-03T08:02:34;102276.52;;;10.13;100.00
55277;BME280;41136;51.478;-2.610;2023-02-03T08:04:59;102281.77;;;9.91;100.00
55277;BME280;41136;51.478;-2.610;2023-02-03T08:07:24;102285.22;;;9.65;100.00
55277;BME280;41136;51.478;-2.610;2023-02-03T08:09:50;102282.42;;;10.25;100.00
55277;BME280;41136;51.478;-2.610;2023-02-03T08:12:15;102288.76;;;9.90;100.00
55277;BME280;41136;51.478;-2.610;2023-02-03T08:14:40;102295.69;;;9.90;100.00
55277;BME280;41136;51.478;-2.610;2023-02-03T08:17:06;102295.89;;;9.94;100.00
55277;BME280;41136;51.478;-2.610;2023-02-03T08:19:31;102307.44;;;9.90;100.00
55277;BME280;41136;51.478;-2.610;2023-02-03T08:21:56;102304.27;;;9.83;100.00
55277;BME280;41136;51.478;-2.610;2023-02-03T08:24:22;102302.75;;;9.69;100.00
55277;BME280;41136;51.478;-2.610;2023-02-03T08:26:47;102305.52;;;10.21;100.00
55277;BME280;41136;51.478;-2.610;2023-02-03T08:29:13;102303.03;;;9.81;100.00
55277;BME280;41136;51.478;-2.610;2023-02-03T08:31:40;102309.64;;;9.77;100.00
55277;BME280;41136;51.478;-2.610;2023-02-03T08:34:03;102314.71;;;9.39;100.00
55277;BME280;41136;51.478;-2.610;2023-02-03T08:36:29;102311.78;;;9.59;100.00
55277;BME280;41136;51.478;-2.610;2023-02-03T08:38:54;102313.66;;;9.18;100.00
55277;BME280;41136;51.478;-2.610;2023-02-03T08:41:19;102313.44;;;9.66;100.00
55277;BME280;41136;51.478;-2.610;2023-02-03T08:43:45;102312.51;;;9.32;100.00
55277;BME280;41136;51.478;-2.610;2023-02-03T08:46:11;102317.14;;;9.20;100.00
55277;BME280;41136;51.478;-2.610;2023-02-03T08:48:36;102315.81;;;9.35;100.00
55277;BME280;41136;51.478;-2.610;2023-02-03T08:51:01;102320.88;;;10.01;100.00
55277;BME280;41136;51.478;-2.610;2023-02-03T08:53:26;102321.04;;;9.35;100.00
55277;BME280;41136;51.478;-2.610;2023-02-03T08:55:52;102326.50;;;9.63;100.00
55277;BME280;41136;51.478;-2.610;2023-02-03T08:58:16;102328.56;;;9.58;100.00
55277;BME280;41136;51.478;-2.610;2023-02-03T09:00:42;102333.92;;;9.23;100.00
55277;BME280;41136;51.478;-2.610;2023-02-03T09:03:07;102334.39;;;9.38;100.00
55277;BME280;41136;51.478;-2.610;2023-02-03T09:05:33;102338.97;;;9.41;100.00
55277;BME280;41136;51.478;-2.610;2023-02-03T09:07:57;102335.88;;;9.20;100.00
55277;BME280;41136;51.478;-2.610;2023-02-03T09:14:06;102346.95;;;7.69;100.00
55277;BME280;41136;51.478;-2.610;2023-02-03T09:16:31;102351.20;;;7.32;100.00
55277;BME280;41136;51.478;-2.610;2023-02-03T09:18:56;102348.94;;;6.98;100.00
55277;BME280;41136;51.478;-2.610;2023-02-03T09:21:21;102340.73;;;8.05;100.00
55277;BME280;41136;51.478;-2.610;2023-02-03T09:23:47;102346.81;;;8.14;100.00
55277;BME280;41136;51.478;-2.610;2023-02-03T09:26:14;102352.85;;;8.06;100.00
55277;BME280;41136;51.478;-2.610;2023-02-03T09:28:38;102354.18;;;8.08;100.00
55277;BME280;41136;51.478;-2.610;2023-02-03T09:31:05;102357.85;;;8.14;100.00
55277;BME280;41136;51.478;-2.610;2023-02-03T09:33:29;102357.51;;;8.28;100.00
55277;BME280;41136;51.478;-2.610;2023-02-03T09:35:55;102365.74;;;7.83;100.00
55277;BME280;41136;51.478;-2.610;2023-02-03T09:38:19;102371.74;;;7.97;100.00
55277;BME280;41136;51.478;-2.610;2023-02-03T09:40:50;102376.35;;;8.30;100.00
55277;BME280;41136;51.478;-2.610;2023-02-03T09:43:25;102382.78;;;8.93;100.00
55277;BME280;41136;51.478;-2.610;2023-02-03T09:45:36;102382.70;;;8.05;100.00
55277;BME280;41136;51.478;-2.610;2023-02-03T09:48:08;102385.53;;;8.55;100.00
55277;BME280;41136;51.478;-2.610;2023-02-03T09:50:29;102391.65;;;9.03;100.00
55277;BME280;41136;51.478;-2.610;2023-02-03T09:52:52;102390.27;;;9.34;100.00
55277;BME280;41136;51.478;-2.610;2023-02-03T09:55:27;102396.32;;;9.14;100.00
55277;BME280;41136;51.478;-2.610;2023-02-03T09:57:45;102398.92;;;8.69;100.00
55277;BME280;41136;51.478;-2.610;2023-02-03T10:00:15;102402.00;;;8.97;100.00
55277;BME280;41136;51.478;-2.610;2023-02-03T10:02:43;102406.04;;;8.52;100.00
55277;BME280;41136;51.478;-2.610;2023-02-03T10:05:03;102413.40;;;8.15;100.00
55277;BME280;41136;51.478;-2.610;2023-02-03T10:07:29;102416.59;;;8.82;100.00
55277;BME280;41136;51.478;-2.610;2023-02-03T10:09:54;102416.94;;;8.68;100.00
55277;BME280;41136;51.478;-2.610;2023-02-03T10:12:22;102424.42;;;9.08;100.00
55277;BME280;41136;51.478;-2.610;2023-02-03T10:14:49;102418.33;;;8.87;100.00
55277;BME280;41136;51.478;-2.610;2023-02-03T10:17:20;102420.54;;;9.02;100.00
55277;BME280;41136;51.478;-2.610;2023-02-03T10:19:37;102419.32;;;8.54;100.00
55277;BME280;41136;51.478;-2.610;2023-02-03T10:21:57;102418.63;;;8.75;100.00
55277;BME280;41136;51.478;-2.610;2023-02-03T10:24:29;102420.13;;;8.66;100.00
55277;BME280;41136;51.478;-2.610;2023-02-03T10:26:48;102425.39;;;8.76;100.00
55277;BME280;41136;51.478;-2.610;2023-02-03T10:29:18;102433.67;;;8.86;100.00
55277;BME280;41136;51.478;-2.610;2023-02-03T10:31:38;102433.22;;;8.98;100.00
55277;BME280;41136;51.478;-2.610;2023-02-03T10:34:09;102435.60;;;8.76;100.00
55277;BME280;41136;51.478;-2.610;2023-02-03T10:36:38;102437.40;;;8.75;100.00
55277;BME280;41136;51.478;-2.610;2023-02-03T10:39:00;102439.18;;;8.52;100.00
55277;BME280;41136;51.478;-2.610;2023-02-03T10:41:20;102440.86;;;8.46;100.00
55277;BME280;41136;51.478;-2.610;2023-02-03T10:43:45;102438.50;;;8.79;100.00
55277;BME280;41136;51.478;-2.610;2023-02-03T10:46:10;102437.09;;;8.85;100.00
55277;BME280;41136;51.478;-2.610;2023-02-03T10:48:35;102438.15;;;8.88;100.00
55277;BME280;41136;51.478;-2.610;2023-02-03T10:51:01;102441.70;;;9.12;100.00
55277;BME280;41136;51.478;-2.610;2023-02-03T10:53:31;102445.26;;;8.84;100.00
55277;BME280;41136;51.478;-2.610;2023-02-03T10:55:59;102446.52;;;8.60;100.00
55277;BME280;41136;51.478;-2.610;2023-02-03T10:58:21;102448.97;;;8.89;100.00
55277;BME280;41136;51.478;-2.610;2023-02-03T11:00:42;102449.68;;;9.21;100.00
55277;BME280;41136;51.478;-2.610;2023-02-03T11:03:19;102452.99;;;9.06;100.00
55277;BME280;41136;51.478;-2.610;2023-02-03T11:05:33;102455.97;;;9.04;100.00
55277;BME280;41136;51.478;-2.610;2023-02-03T11:07:59;102459.05;;;9.52;100.00
55277;BME280;41136;51.478;-2.610;2023-02-03T11:10:28;102456.33;;;9.69;100.00
55277;BME280;41136;51.478;-2.610;2023-02-03T11:12:49;102456.48;;;9.34;100.00
55277;BME280;41136;51.478;-2.610;2023-02-03T11:15:14;102455.24;;;9.98;100.00
55277;BME280;41136;51.478;-2.610;2023-02-03T11:17:43;102455.76;;;9.12;100.00
55277;BME280;41136;51.478;-2.610;2023-02-03T11:20:13;102460.71;;;9.49;100.00
55277;BME280;41136;51.478;-2.610;2023-02-03T11:22:33;102466.25;;;9.35;100.00
55277;BME280;41136;51.478;-2.610;2023-02-03T11:24:56;102464.56;;;9.11;100.00
55277;BME280;41136;51.478;-2.610;2023-02-03T11:27:21;102464.50;;;9.01;100.00
55277;BME280;41136;51.478;-2.610;2023-02-03T11:29:48;102470.18;;;9.51;100.00
55277;BME280;41136;51.478;-2.610;2023-02-03T11:32:17;102466.24;;;9.13;100.00
55277;BME280;41136;51.478;-2.610;2023-02-03T11:34:37;102463.25;;;9.62;100.00
55277;BME280;41136;51.478;-2.610;2023-02-03T11:39:29;102463.84;;;9.27;100.00
55277;BME280;41136;51.478;-2.610;2023-02-03T11:41:53;102466.52;;;9.28;100.00
55277;BME280;41136;51.478;-2.610;2023-02-03T11:44:21;102466.93;;;9.51;100.00
55277;BME280;41136;51.478;-2.610;2023-02-03T11:46:45;102463.28;;;9.41;100.00
55277;BME280;41136;51.478;-2.610;2023-02-03T11:49:22;102455.46;;;9.07;100.00
55277;BME280;41136;51.478;-2.610;2023-02-03T11:51:39;102459.23;;;8.92;100.00
55277;BME280;41136;51.478;-2.610;2023-02-03T11:54:11;102451.13;;;8.89;100.00
55277;BME280;41136;51.478;-2.610;2023-02-03T11:56:31;102454.44;;;8.95;100.00
55277;BME280;41136;51.478;-2.610;2023-02-03T11:59:03;102446.36;;;8.89;100.00
55277;BME280;41136;51.478;-2.610;2023-02-03T12:01:24;102443.58;;;8.84;100.00
55277;BME280;41136;51.478;-2.610;2023-02-03T12:03:53;102440.88;;;9.39;100.00
55277;BME280;41136;51.478;-2.610;2023-02-03T12:06:17;102435.03;;;9.18;100.00
55277;BME280;41136;51.478;-2.610;2023-02-03T12:08:42;102430.63;;;9.50;100.00
55277;BME280;41136;51.478;-2.610;2023-02-03T12:11:05;102425.10;;;8.81;100.00
55277;BME280;41136;51.478;-2.610;2023-02-03T12:13:34;102426.01;;;9.12;100.00
55277;BME280;41136;51.478;-2.610;2023-02-03T12:16:02;102410.74;;;9.02;100.00
55277;BME280;41136;51.478;-2.610;2023-02-03T12:18:20;102413.55;;;8.78;100.00
55277;BME280;41136;51.478;-2.610;2023-02-03T12:20:46;102410.15;;;9.14;100.00
55277;BME280;41136;51.478;-2.610;2023-02-03T12:23:13;102406.32;;;9.02;100.00
55277;BME280;41136;51.478;-2.610;2023-02-03T12:25:39;102412.26;;;8.79;100.00
55277;BME280;41136;51.478;-2.610;2023-02-03T12:28:03;102414.29;;;9.23;100.00
55277;BME280;41136;51.478;-2.610;2023-02-03T12:30:23;102417.04;;;8.60;100.00
55277;BME280;41136;51.478;-2.610;2023-02-03T12:32:49;102416.56;;;9.14;100.00
55277;BME280;41136;51.478;-2.610;2023-02-03T12:35:14;102421.13;;;9.39;100.00
55277;BME280;41136;51.478;-2.610;2023-02-03T12:37:42;102426.16;;;9.03;100.00
55277;BME280;41136;51.478;-2.610;2023-02-03T12:40:04;102425.26;;;9.48;100.00
55277;BME280;41136;51.478;-2.610;2023-02-03T12:42:29;102414.76;;;9.46;100.00
55277;BME280;41136;51.478;-2.610;2023-02-03T12:44:55;102424.24;;;9.56;100.00
55277;BME280;41136;51.478;-2.610;2023-02-03T12:47:23;102423.54;;;9.09;100.00
55277;BME280;41136;51.478;-2.610;2023-02-03T12:49:45;102426.32;;;9.19;100.00